Terminal Aerodrome Forecast
Issued by NWS

Home | Current Version | Previous Version | Text Only | Print | Product List | Glossary On
Versions: 1 2 3 4 5 6 7 8 9 10 11 12
000
FTUS43 KGRR 290500
TAFAZO
TAF
KAZO 290540Z 2906/3006 16012G20KT 5SM -FZRAPL OVC035 WS020/21050KT
     FM290900 17012KT 5SM -FZRA BR OVC015
     FM291200 21008KT 1SM -FZRAPL BR OVC009
     FM291800 30015G25KT 5SM -SHSN OVC015=

USA.gov is the U.S. government's official web portal to all federal, state and local government web resources and services.